createdAt,value
2018-12-01T00:00:35.534Z,1004.58
2018-12-01T00:01:35.515Z,1004.6
2018-12-01T00:02:35.664Z,1004.59
2018-12-01T00:03:35.478Z,1004.61
2018-12-01T00:04:35.465Z,1004.62
2018-12-01T00:05:35.438Z,1004.61
2018-12-01T00:06:35.420Z,1004.65
2018-12-01T00:07:35.401Z,1004.64
2018-12-01T00:08:35.381Z,1004.67
2018-12-01T00:09:35.361Z,1004.62
2018-12-01T00:10:35.343Z,1004.66
2018-12-01T00:11:35.326Z,1004.61
2018-12-01T00:12:35.310Z,1004.59
2018-12-01T00:13:35.290Z,1004.63
2018-12-01T00:14:35.266Z,1004.57
2018-12-01T00:15:35.249Z,1004.58
2018-12-01T00:16:35.229Z,1004.59
2018-12-01T00:17:35.212Z,1004.61
2018-12-01T00:18:35.190Z,1004.62
2018-12-01T00:19:35.173Z,1004.62
2018-12-01T00:20:35.155Z,1004.61
2018-12-01T00:21:35.134Z,1004.62
2018-12-01T00:22:35.115Z,1004.6
2018-12-01T00:23:35.094Z,1004.59
2018-12-01T00:24:35.077Z,1004.56
2018-12-01T00:25:35.072Z,1004.57
2018-12-01T00:26:35.038Z,1004.6
2018-12-01T00:27:35.023Z,1004.59
2018-12-01T00:28:35.000Z,1004.58
2018-12-01T00:29:34.982Z,1004.59
2018-12-01T00:30:34.968Z,1004.58
2018-12-01T00:31:34.942Z,1004.61
2018-12-01T00:32:34.924Z,1004.6
2018-12-01T00:33:34.911Z,1004.59
2018-12-01T00:34:34.884Z,1004.61
2018-12-01T00:35:34.865Z,1004.62
2018-12-01T00:36:34.847Z,1004.64
2018-12-01T00:37:34.828Z,1004.61
2018-12-01T00:38:34.842Z,1004.61
2018-12-01T00:39:34.790Z,1004.6
2018-12-01T00:40:34.773Z,1004.58
2018-12-01T00:41:34.754Z,1004.65
2018-12-01T00:42:34.732Z,1004.64
2018-12-01T00:43:34.721Z,1004.61
2018-12-01T00:44:34.692Z,1004.59
2018-12-01T00:45:34.673Z,1004.61
2018-12-01T00:46:34.655Z,1004.65
2018-12-01T00:47:34.635Z,1004.6
2018-12-01T00:48:34.615Z,1004.59
2018-12-01T00:49:34.597Z,1004.61
2018-12-01T00:50:34.580Z,1004.62
2018-12-01T00:51:34.561Z,1004.6
2018-12-01T00:52:34.546Z,1004.66
2018-12-01T00:53:34.520Z,1004.64
2018-12-01T00:54:34.503Z,1004.66
2018-12-01T00:55:34.527Z,1004.67
2018-12-01T00:56:34.462Z,1004.67
2018-12-01T00:57:34.443Z,1004.66
2018-12-01T00:58:34.424Z,1004.68
2018-12-01T00:59:34.410Z,1004.69
2018-12-01T01:00:34.384Z,1004.7
2018-12-01T01:01:34.379Z,1004.68
2018-12-01T01:02:34.345Z,1004.68
2018-12-01T01:03:34.329Z,1004.7
2018-12-01T01:04:34.309Z,1004.68
2018-12-01T01:05:34.291Z,1004.71
2018-12-01T01:06:34.269Z,1004.67
2018-12-01T01:07:34.251Z,1004.73
2018-12-01T01:08:34.230Z,1004.69
2018-12-01T01:09:34.211Z,1004.71
2018-12-01T01:10:34.711Z,1004.7
2018-12-01T01:11:34.174Z,1004.7
2018-12-01T01:12:34.155Z,1004.73
2018-12-01T01:13:34.135Z,1004.7
2018-12-01T01:14:34.116Z,1004.66
2018-12-01T01:15:34.097Z,1004.65
2018-12-01T01:16:34.075Z,1004.69
2018-12-01T01:17:34.055Z,1004.66
2018-12-01T01:18:34.038Z,1004.66
2018-12-01T01:19:34.019Z,1004.67
2018-12-01T01:20:34.001Z,1004.68
2018-12-01T01:21:33.979Z,1004.68
2018-12-01T01:22:33.962Z,1004.67
2018-12-01T01:23:33.942Z,1004.69
2018-12-01T01:24:33.923Z,1004.65
2018-12-01T01:25:33.905Z,1004.7
2018-12-01T01:26:33.883Z,1004.66
2018-12-01T01:27:33.865Z,1004.63
2018-12-01T01:28:33.846Z,1004.64
2018-12-01T01:29:33.825Z,1004.59
2018-12-01T01:30:33.808Z,1004.61
2018-12-01T01:31:33.787Z,1004.66
2018-12-01T01:32:33.767Z,1004.66
2018-12-01T01:33:33.748Z,1004.65
2018-12-01T01:34:33.729Z,1004.68
2018-12-01T01:35:33.712Z,1004.71
2018-12-01T01:36:33.690Z,1004.71
2018-12-01T01:37:33.677Z,1004.71
2018-12-01T01:38:33.652Z,1004.73
2018-12-01T01:39:33.633Z,1004.74
2018-12-01T01:40:33.634Z,1004.79
2018-12-01T01:41:33.594Z,1004.76
2018-12-01T01:42:33.582Z,1004.79
2018-12-01T01:43:33.555Z,1004.73
2018-12-01T01:44:33.537Z,1004.73
2018-12-01T01:45:33.517Z,1004.75
2018-12-01T01:46:33.499Z,1004.77
2018-12-01T01:47:33.480Z,1004.74
2018-12-01T01:48:33.461Z,1004.74
2018-12-01T01:49:33.439Z,1004.74
2018-12-01T01:50:33.422Z,1004.75
2018-12-01T01:51:33.405Z,1004.77
2018-12-01T01:52:33.383Z,1004.78
2018-12-01T01:53:33.364Z,1004.74
2018-12-01T01:54:33.345Z,1004.74
2018-12-01T01:55:33.325Z,1004.71
2018-12-01T01:56:33.305Z,1004.7
2018-12-01T01:57:33.289Z,1004.73
2018-12-01T01:58:33.266Z,1004.66
2018-12-01T01:59:33.248Z,1004.68
2018-12-01T02:00:33.231Z,1004.7
2018-12-01T02:01:33.207Z,1004.67
2018-12-01T02:02:33.216Z,1004.69
2018-12-01T02:03:33.175Z,1004.66
2018-12-01T02:04:33.149Z,1004.67
2018-12-01T02:05:33.130Z,1004.63
2018-12-01T02:06:33.112Z,1004.6
2018-12-01T02:07:33.090Z,1004.59
2018-12-01T02:08:33.072Z,1004.61
2018-12-01T02:09:33.052Z,1004.58
2018-12-01T02:10:33.036Z,1004.6
2018-12-01T02:11:33.013Z,1004.52
2018-12-01T02:12:32.997Z,1004.55
2018-12-01T02:13:32.975Z,1004.55
2018-12-01T02:14:32.956Z,1004.54
2018-12-01T02:15:32.938Z,1004.55
2018-12-01T02:16:32.916Z,1004.55
2018-12-01T02:17:32.898Z,1004.53
2018-12-01T02:18:32.879Z,1004.53
2018-12-01T02:19:32.857Z,1004.55
2018-12-01T02:20:32.842Z,1004.55
2018-12-01T02:21:32.820Z,1004.57
2018-12-01T02:22:32.800Z,1004.56
2018-12-01T02:23:32.789Z,1004.57
2018-12-01T02:24:32.764Z,1004.6
2018-12-01T02:25:32.741Z,1004.58
2018-12-01T02:26:32.721Z,1004.58
2018-12-01T02:27:32.739Z,1004.6
2018-12-01T02:28:32.685Z,1004.6
2018-12-01T02:29:32.664Z,1004.6
2018-12-01T02:30:32.645Z,1004.57
2018-12-01T02:31:32.625Z,1004.65
2018-12-01T02:32:32.606Z,1004.62
2018-12-01T02:33:32.587Z,1004.6
2018-12-01T02:34:32.569Z,1004.6
2018-12-01T02:35:32.548Z,1004.56
2018-12-01T02:36:32.527Z,1004.53
2018-12-01T02:37:32.505Z,1004.58
2018-12-01T02:38:32.488Z,1004.55
2018-12-01T02:39:32.467Z,1004.54
2018-12-01T02:40:32.450Z,1004.54
2018-12-01T02:41:32.427Z,1004.54
2018-12-01T02:42:32.408Z,1004.5
2018-12-01T02:43:32.394Z,1004.54
2018-12-01T02:44:32.368Z,1004.52
2018-12-01T02:45:32.350Z,1004.52
2018-12-01T02:46:32.329Z,1004.54
2018-12-01T02:47:32.312Z,1004.52
2018-12-01T02:48:32.294Z,1004.51
2018-12-01T02:49:32.271Z,1004.53
2018-12-01T02:50:32.251Z,1004.55
2018-12-01T02:51:32.231Z,1004.56
2018-12-01T02:52:32.213Z,1004.53
2018-12-01T02:53:32.194Z,1004.57
2018-12-01T02:54:32.173Z,1004.58
2018-12-01T02:55:32.155Z,1004.54
2018-12-01T02:56:32.135Z,1004.57
2018-12-01T02:57:32.115Z,1004.56
2018-12-01T02:58:32.097Z,1004.55
2018-12-01T02:59:32.075Z,1004.56
2018-12-01T03:00:32.059Z,1004.58
2018-12-01T03:01:32.036Z,1004.58
2018-12-01T03:02:32.014Z,1004.56
2018-12-01T03:03:31.996Z,1004.59
2018-12-01T03:04:31.978Z,1004.58
2018-12-01T03:05:31.960Z,1004.57
2018-12-01T03:06:31.937Z,1004.58
2018-12-01T03:07:31.917Z,1004.58
2018-12-01T03:08:31.900Z,1004.6
2018-12-01T03:09:31.880Z,1004.57
2018-12-01T03:10:31.859Z,1004.6
2018-12-01T03:11:31.838Z,1004.57
2018-12-01T03:12:31.819Z,1004.54
2018-12-01T03:13:31.800Z,1004.55
2018-12-01T03:14:31.779Z,1004.5
2018-12-01T03:15:31.760Z,1004.47
2018-12-01T03:16:31.741Z,1004.55
2018-12-01T03:17:31.726Z,1004.48
2018-12-01T03:18:31.705Z,1004.47
2018-12-01T03:19:31.731Z,1004.44
2018-12-01T03:20:31.662Z,1004.47
2018-12-01T03:21:31.848Z,1004.46
2018-12-01T03:22:31.623Z,1004.51
2018-12-01T03:23:31.607Z,1004.53
2018-12-01T03:24:31.587Z,1004.52
2018-12-01T03:25:31.564Z,1004.53
2018-12-01T03:26:31.545Z,1004.55
2018-12-01T03:27:31.527Z,1004.52
2018-12-01T03:28:31.505Z,1004.55
2018-12-01T03:29:31.485Z,1004.52
2018-12-01T03:30:31.471Z,1004.53
2018-12-01T03:31:31.447Z,1004.44
2018-12-01T03:32:31.427Z,1004.5
2018-12-01T03:33:31.406Z,1004.51
2018-12-01T03:34:31.389Z,1004.5
2018-12-01T03:35:31.369Z,1004.53
2018-12-01T03:36:31.347Z,1004.53
2018-12-01T03:37:31.328Z,1004.54
2018-12-01T03:38:31.308Z,1004.53
2018-12-01T03:39:31.287Z,1004.55
2018-12-01T03:40:31.267Z,1004.59
2018-12-01T03:41:31.251Z,1004.66
2018-12-01T03:42:31.230Z,1004.65
2018-12-01T03:43:31.208Z,1004.66
2018-12-01T03:44:31.188Z,1004.67
2018-12-01T03:45:31.170Z,1004.69
2018-12-01T03:46:31.149Z,1004.65
2018-12-01T03:47:31.129Z,1004.61
2018-12-01T03:48:31.110Z,1004.61
2018-12-01T03:49:31.091Z,1004.61
2018-12-01T03:50:31.072Z,1004.66
2018-12-01T03:51:31.059Z,1004.68
2018-12-01T03:52:31.031Z,1004.68
2018-12-01T03:53:31.013Z,1004.67
2018-12-01T03:54:30.991Z,1004.64
2018-12-01T03:55:30.976Z,1004.68
2018-12-01T03:56:30.952Z,1004.66
2018-12-01T03:57:30.932Z,1004.65
2018-12-01T03:58:30.914Z,1004.65
2018-12-01T03:59:30.891Z,1004.66
2018-12-01T04:00:30.880Z,1004.67
2018-12-01T04:01:30.856Z,1004.66
2018-12-01T04:02:30.841Z,1004.73
2018-12-01T04:03:30.817Z,1004.68
2018-12-01T04:04:30.800Z,1004.67
2018-12-01T04:05:30.778Z,1004.63
2018-12-01T04:06:30.753Z,1004.61
2018-12-01T04:07:30.733Z,1004.67
2018-12-01T04:08:30.713Z,1004.71
2018-12-01T04:09:30.696Z,1004.7
2018-12-01T04:10:30.688Z,1004.69
2018-12-01T04:11:30.656Z,1004.67
2018-12-01T04:12:30.633Z,1004.66
2018-12-01T04:13:30.615Z,1004.63
2018-12-01T04:14:30.596Z,1004.7
2018-12-01T04:15:30.577Z,1004.71
2018-12-01T04:16:30.561Z,1004.72
2018-12-01T04:17:30.536Z,1004.71
2018-12-01T04:18:30.526Z,1004.7
2018-12-01T04:19:30.501Z,1004.74
2018-12-01T04:20:30.525Z,1004.78
2018-12-01T04:21:30.455Z,1004.76
2018-12-01T04:22:30.443Z,1004.78
2018-12-01T04:23:30.416Z,1004.77
2018-12-01T04:24:30.395Z,1004.74
2018-12-01T04:25:30.377Z,1004.72
2018-12-01T04:26:30.356Z,1004.77
2018-12-01T04:27:30.336Z,1004.73
2018-12-01T04:28:30.331Z,1004.73
2018-12-01T04:29:30.296Z,1004.73
2018-12-01T04:30:30.276Z,1004.72
2018-12-01T04:31:30.258Z,1004.75
2018-12-01T04:32:30.237Z,1004.78
2018-12-01T04:33:30.219Z,1004.78
2018-12-01T04:34:30.203Z,1004.76
2018-12-01T04:35:30.179Z,1004.78
2018-12-01T04:36:30.158Z,1004.78
2018-12-01T04:37:30.149Z,1004.78
2018-12-01T04:38:30.120Z,1004.77
2018-12-01T04:39:30.097Z,1004.79
2018-12-01T04:40:30.088Z,1004.76
2018-12-01T04:41:30.058Z,1004.77
2018-12-01T04:42:30.040Z,1004.81
2018-12-01T04:43:30.020Z,1004.79
2018-12-01T04:44:30.000Z,1004.82
2018-12-01T04:45:29.982Z,1004.81
2018-12-01T04:46:29.957Z,1004.8
2018-12-01T04:47:29.938Z,1004.85
2018-12-01T04:48:29.934Z,1004.86
2018-12-01T04:49:29.897Z,1004.88
2018-12-01T04:50:29.875Z,1004.91
2018-12-01T04:51:29.858Z,1004.91
2018-12-01T04:52:29.838Z,1004.93
2018-12-01T04:53:29.817Z,1004.91
2018-12-01T04:54:29.804Z,1004.93
2018-12-01T04:55:29.778Z,1004.88
2018-12-01T04:56:29.758Z,1004.93
2018-12-01T04:57:29.739Z,1004.85
2018-12-01T04:58:29.721Z,1004.89
2018-12-01T04:59:29.701Z,1004.89
2018-12-01T05:00:29.688Z,1004.88
2018-12-01T05:01:29.664Z,1004.91
2018-12-01T05:02:29.640Z,1004.89
2018-12-01T05:03:29.619Z,1004.96
2018-12-01T05:04:29.600Z,1004.96
2018-12-01T05:05:29.581Z,1004.91
2018-12-01T05:06:29.561Z,1004.98
2018-12-01T05:07:29.541Z,1004.96
2018-12-01T05:08:29.519Z,1005
2018-12-01T05:09:29.501Z,1005.05
2018-12-01T05:10:29.481Z,1005.06
2018-12-01T05:11:29.465Z,1004.98
2018-12-01T05:12:29.442Z,1005.04
2018-12-01T05:13:29.424Z,1005.06
2018-12-01T05:14:29.403Z,1005.04
2018-12-01T05:15:29.381Z,1005.04
2018-12-01T05:16:29.363Z,1005.1
2018-12-01T05:17:29.341Z,1005.1
2018-12-01T05:18:29.324Z,1005.06
2018-12-01T05:19:29.307Z,1005.05
2018-12-01T05:20:29.283Z,1005.06
2018-12-01T05:21:29.466Z,1005
2018-12-01T05:22:29.244Z,1005.01
2018-12-01T05:23:29.224Z,1005.03
2018-12-01T05:24:29.206Z,1004.97
2018-12-01T05:25:29.182Z,1004.94
2018-12-01T05:26:29.165Z,1004.97
2018-12-01T05:27:29.147Z,1004.94
2018-12-01T05:28:29.124Z,1004.91
2018-12-01T05:29:29.105Z,1004.91
2018-12-01T05:30:29.087Z,1004.96
2018-12-01T05:31:29.067Z,1004.94
2018-12-01T05:32:29.044Z,1004.95
2018-12-01T05:33:29.028Z,1004.99
2018-12-01T05:34:29.006Z,1004.98
2018-12-01T05:35:28.986Z,1004.96
2018-12-01T05:36:28.966Z,1004.98
2018-12-01T05:37:28.947Z,1005
2018-12-01T05:38:28.928Z,1004.99
2018-12-01T05:39:28.907Z,1005.06
2018-12-01T05:40:28.888Z,1005
2018-12-01T05:41:28.874Z,1005.01
2018-12-01T05:42:28.851Z,1005.03
2018-12-01T05:43:28.830Z,1005.08
2018-12-01T05:44:28.808Z,1005.06
2018-12-01T05:45:28.793Z,1005.05
2018-12-01T05:46:28.771Z,1005.09
2018-12-01T05:47:28.753Z,1005.05
2018-12-01T05:48:28.735Z,1005.06
2018-12-01T05:49:28.712Z,1005.09
2018-12-01T05:50:28.696Z,1005.1
2018-12-01T05:51:28.673Z,1005.11
2018-12-01T05:52:28.657Z,1005.08
2018-12-01T05:53:28.634Z,1005.07
2018-12-01T05:54:28.632Z,1005.07
2018-12-01T05:55:28.592Z,1005.05
2018-12-01T05:56:28.575Z,1005.06
2018-12-01T05:57:28.558Z,1004.98
2018-12-01T05:58:28.543Z,1004.99
2018-12-01T05:59:28.514Z,1004.94
2018-12-01T06:00:28.497Z,1004.96
2018-12-01T06:01:28.474Z,1004.97
2018-12-01T06:02:28.454Z,1004.97
2018-12-01T06:03:28.435Z,1004.99
2018-12-01T06:04:28.422Z,1005
2018-12-01T06:05:28.396Z,1005.03
2018-12-01T06:06:28.376Z,1005.04
2018-12-01T06:07:28.355Z,1005.01
2018-12-01T06:08:28.336Z,1005.03
2018-12-01T06:09:28.348Z,1005
2018-12-01T06:10:28.297Z,1005.02
2018-12-01T06:11:28.277Z,1005.02
2018-12-01T06:12:28.260Z,1004.99
2018-12-01T06:13:28.241Z,1005.01
2018-12-01T06:14:28.217Z,1005.02
2018-12-01T06:15:28.198Z,1004.98
2018-12-01T06:16:28.187Z,1004.95
2018-12-01T06:17:28.159Z,1004.91
2018-12-01T06:18:28.140Z,1004.9
2018-12-01T06:19:28.120Z,1004.89
2018-12-01T06:20:28.100Z,1004.91
2018-12-01T06:21:28.132Z,1004.89
2018-12-01T06:22:28.067Z,1004.87
2018-12-01T06:23:28.044Z,1004.87
2018-12-01T06:24:28.020Z,1004.86
2018-12-01T06:25:28.004Z,1004.86
2018-12-01T06:26:27.986Z,1004.9
2018-12-01T06:27:27.962Z,1004.85
2018-12-01T06:28:27.993Z,1004.85
2018-12-01T06:29:27.922Z,1004.85
2018-12-01T06:30:27.905Z,1004.81
2018-12-01T06:31:27.886Z,1004.84
2018-12-01T06:32:27.867Z,1004.79
2018-12-01T06:33:27.849Z,1004.8
2018-12-01T06:34:27.825Z,1004.72
2018-12-01T06:35:27.806Z,1004.74
2018-12-01T06:36:27.788Z,1004.72
2018-12-01T06:37:27.769Z,1004.74
2018-12-01T06:38:27.749Z,1004.68
2018-12-01T06:39:27.728Z,1004.68
2018-12-01T06:40:27.712Z,1004.75
2018-12-01T06:41:27.691Z,1004.74
2018-12-01T06:42:27.679Z,1004.72
2018-12-01T06:43:27.649Z,1004.68
2018-12-01T06:44:27.634Z,1004.69
2018-12-01T06:45:27.611Z,1004.75
2018-12-01T06:46:27.594Z,1004.76
2018-12-01T06:47:27.573Z,1004.79
2018-12-01T06:48:27.551Z,1004.88
2018-12-01T06:49:27.532Z,1004.87
2018-12-01T06:50:27.513Z,1004.87
2018-12-01T06:51:27.496Z,1004.88
2018-12-01T06:52:27.475Z,1004.88
2018-12-01T06:53:27.454Z,1004.89
2018-12-01T06:54:27.437Z,1004.84
2018-12-01T06:55:27.415Z,1004.84
2018-12-01T06:56:27.394Z,1004.77
2018-12-01T06:57:27.375Z,1004.82
2018-12-01T06:58:27.356Z,1004.82
2018-12-01T06:59:27.336Z,1004.83
2018-12-01T07:00:27.321Z,1004.81
2018-12-01T07:01:27.298Z,1004.81
2018-12-01T07:02:27.278Z,1004.79
2018-12-01T07:03:27.257Z,1004.8
2018-12-01T07:04:27.238Z,1004.77
2018-12-01T07:05:27.217Z,1004.77
2018-12-01T07:06:27.199Z,1004.76
2018-12-01T07:07:27.181Z,1004.78
2018-12-01T07:08:27.161Z,1004.81
2018-12-01T07:09:27.141Z,1004.82
2018-12-01T07:10:27.124Z,1004.83
2018-12-01T07:11:27.102Z,1004.86
2018-12-01T07:12:27.080Z,1004.89
2018-12-01T07:13:27.061Z,1004.91
2018-12-01T07:14:27.041Z,1004.92
2018-12-01T07:15:27.022Z,1004.94
2018-12-01T07:16:27.004Z,1004.94
2018-12-01T07:17:26.983Z,1004.98
2018-12-01T07:18:26.965Z,1005.02
2018-12-01T07:19:26.942Z,1005.03
2018-12-01T07:20:26.925Z,1005.01
2018-12-01T07:21:27.109Z,1005.01
2018-12-01T07:22:26.883Z,1005.05
2018-12-01T07:23:26.869Z,1005.01
2018-12-01T07:24:26.844Z,1005.06
2018-12-01T07:25:26.832Z,1005.07
2018-12-01T07:26:26.807Z,1005.05
2018-12-01T07:27:26.790Z,1004.99
2018-12-01T07:28:26.768Z,1005.02
2018-12-01T07:29:26.746Z,1005.02
2018-12-01T07:30:26.731Z,1004.99
2018-12-01T07:31:26.710Z,1004.98
2018-12-01T07:32:26.688Z,1004.98
2018-12-01T07:33:26.669Z,1004.96
2018-12-01T07:34:26.651Z,1004.98
2018-12-01T07:35:26.637Z,1005
2018-12-01T07:36:26.611Z,1004.97
2018-12-01T07:37:26.607Z,1004.95
2018-12-01T07:38:26.576Z,1004.99
2018-12-01T07:39:26.562Z,1005.01
2018-12-01T07:40:26.534Z,1005.03
2018-12-01T07:41:26.517Z,1005.02
2018-12-01T07:42:26.496Z,1005.03
2018-12-01T07:43:26.478Z,1005
2018-12-01T07:44:26.456Z,1005.04
2018-12-01T07:45:26.437Z,1005.01
2018-12-01T07:46:26.416Z,1005.05
2018-12-01T07:47:26.400Z,1005.08
2018-12-01T07:48:26.380Z,1005.12
2018-12-01T07:49:26.409Z,1005.05
2018-12-01T07:50:26.340Z,1005.06
2018-12-01T07:51:26.340Z,1005.02
2018-12-01T07:52:26.318Z,1005
2018-12-01T07:53:26.282Z,1005.02
2018-12-01T07:54:26.264Z,1005.01
2018-12-01T07:55:26.245Z,1005.04
2018-12-01T07:56:26.225Z,1005.01
2018-12-01T07:57:26.209Z,1004.99
2018-12-01T07:58:26.192Z,1005.01
2018-12-01T07:59:26.167Z,1004.96
2018-12-01T08:00:26.147Z,1005
2018-12-01T08:01:26.129Z,1005.01
2018-12-01T08:02:26.109Z,1004.98
2018-12-01T08:03:26.868Z,1005.06
2018-12-01T08:04:26.070Z,1004.97
2018-12-01T08:05:26.051Z,1004.94
2018-12-01T08:06:26.034Z,1004.94
2018-12-01T08:07:26.013Z,1004.99
2018-12-01T08:08:25.994Z,1004.93
2018-12-01T08:09:25.979Z,1004.97
2018-12-01T08:10:25.956Z,1004.94
2018-12-01T08:11:25.936Z,1004.96
2018-12-01T08:12:25.917Z,1004.94
2018-12-01T08:13:25.900Z,1004.96
2018-12-01T08:14:25.879Z,1004.95
2018-12-01T08:15:25.861Z,1004.95
2018-12-01T08:16:25.840Z,1004.94
2018-12-01T08:17:25.823Z,1004.92
2018-12-01T08:18:25.807Z,1004.94
2018-12-01T08:19:25.787Z,1004.93
2018-12-01T08:20:25.764Z,1004.87
2018-12-01T08:21:25.745Z,1004.89
2018-12-01T08:22:25.730Z,1004.83
2018-12-01T08:23:25.711Z,1004.85
2018-12-01T08:24:25.689Z,1004.8
2018-12-01T08:25:25.673Z,1004.78
2018-12-01T08:26:25.651Z,1004.83
2018-12-01T08:27:25.635Z,1004.74
2018-12-01T08:28:25.614Z,1004.82
2018-12-01T08:29:25.596Z,1004.83
2018-12-01T08:30:25.579Z,1004.86
2018-12-01T08:31:25.557Z,1004.9
2018-12-01T08:32:25.538Z,1004.93
2018-12-01T08:33:25.523Z,1004.97
2018-12-01T08:34:25.502Z,1004.98
2018-12-01T08:35:25.480Z,1005.03
2018-12-01T08:36:25.464Z,1005.01
2018-12-01T08:37:25.445Z,1005.02
2018-12-01T08:38:25.426Z,1005.03
2018-12-01T08:39:25.404Z,1004.98
2018-12-01T08:40:25.387Z,1004.97
2018-12-01T08:41:25.371Z,1004.95
2018-12-01T08:42:25.349Z,1004.97
2018-12-01T08:43:25.333Z,1004.99
2018-12-01T08:44:25.321Z,1005
2018-12-01T08:45:25.292Z,1004.95
2018-12-01T08:46:25.278Z,1004.95
2018-12-01T08:47:25.259Z,1004.94
2018-12-01T08:48:25.241Z,1004.98
2018-12-01T08:49:25.218Z,1004.93
2018-12-01T08:50:25.198Z,1004.9
2018-12-01T08:51:25.183Z,1004.96
2018-12-01T08:52:25.166Z,1004.92
2018-12-01T08:53:25.147Z,1004.94
2018-12-01T08:54:25.126Z,1004.92
2018-12-01T08:55:25.106Z,1004.99
2018-12-01T08:56:25.088Z,1004.93
2018-12-01T08:57:25.070Z,1005.03
2018-12-01T08:58:25.053Z,1004.96
2018-12-01T08:59:25.030Z,1004.98
2018-12-01T09:00:25.011Z,1005.01
2018-12-01T09:01:24.993Z,1005
2018-12-01T09:02:24.974Z,1005.04
2018-12-01T09:03:24.958Z,1005.05
2018-12-01T09:04:24.939Z,1005.06
2018-12-01T09:05:24.918Z,1005.05
2018-12-01T09:06:24.905Z,1005.13
2018-12-01T09:07:24.883Z,1005.13
2018-12-01T09:08:24.863Z,1005.12
2018-12-01T09:09:24.849Z,1005.12
2018-12-01T09:10:24.829Z,1005.14
2018-12-01T09:11:24.811Z,1005.12
2018-12-01T09:12:24.790Z,1005.14
2018-12-01T09:13:24.770Z,1005.14
2018-12-01T09:14:24.752Z,1005.1
2018-12-01T09:15:24.734Z,1005.09
2018-12-01T09:16:24.721Z,1005.1
2018-12-01T09:17:24.698Z,1005.07
2018-12-01T09:18:24.681Z,1005.11
2018-12-01T09:19:24.660Z,1005.18
2018-12-01T09:20:24.646Z,1005.09
2018-12-01T09:21:24.830Z,1005.18
2018-12-01T09:22:24.607Z,1005.14
2018-12-01T09:23:24.591Z,1005.13
2018-12-01T09:24:24.583Z,1005.19
2018-12-01T09:25:24.552Z,1005.21
2018-12-01T09:26:24.534Z,1005.14
2018-12-01T09:27:24.521Z,1005.13
2018-12-01T09:28:24.500Z,1005.1
2018-12-01T09:29:24.484Z,1005.14
2018-12-01T09:30:24.463Z,1005.1
2018-12-01T09:31:24.446Z,1005.09
2018-12-01T09:32:24.428Z,1005.05
2018-12-01T09:33:24.411Z,1005.05
2018-12-01T09:34:24.398Z,1005.02
2018-12-01T09:35:24.373Z,1005.07
2018-12-01T09:36:24.356Z,1005.06
2018-12-01T09:37:24.339Z,1005.03
2018-12-01T09:38:24.322Z,1005.04
2018-12-01T09:39:24.304Z,1004.97
2018-12-01T09:40:24.287Z,1005.07
2018-12-01T09:41:24.267Z,1005.06
2018-12-01T09:42:24.839Z,1005.07
2018-12-01T09:43:24.234Z,1005.09
2018-12-01T09:44:24.215Z,1005.09
2018-12-01T09:45:24.197Z,1005.09
2018-12-01T09:46:24.179Z,1005.1
2018-12-01T09:47:24.163Z,1005.11
2018-12-01T09:48:24.144Z,1005.11
2018-12-01T09:49:24.128Z,1005.12
2018-12-01T09:50:24.112Z,1005.1
2018-12-01T09:51:24.093Z,1005.12
2018-12-01T09:52:24.078Z,1005.11
2018-12-01T09:53:24.064Z,1005.18
2018-12-01T09:54:24.046Z,1005.1
2018-12-01T09:55:24.027Z,1005.04
2018-12-01T09:56:24.011Z,1005.07
2018-12-01T09:57:23.996Z,1005.03
2018-12-01T09:58:23.983Z,1005.03
2018-12-01T09:59:23.962Z,1005.01
2018-12-01T10:00:23.946Z,1004.99
2018-12-01T10:01:23.933Z,1004.95
2018-12-01T10:02:23.914Z,1004.95
2018-12-01T10:03:23.898Z,1004.95
2018-12-01T10:04:23.887Z,1005
2018-12-01T10:05:23.869Z,1005.01
2018-12-01T10:06:23.851Z,1005
2018-12-01T10:07:23.839Z,1004.98
2018-12-01T10:08:23.822Z,1004.96
2018-12-01T10:09:23.805Z,1004.92
2018-12-01T10:10:23.792Z,1004.86
2018-12-01T10:11:23.774Z,1004.87
2018-12-01T10:12:23.759Z,1004.87
2018-12-01T10:13:23.745Z,1004.88
2018-12-01T10:14:23.727Z,1004.81
2018-12-01T10:15:23.916Z,1004.82
2018-12-01T10:16:23.697Z,1004.82
2018-12-01T10:17:23.682Z,1004.81
2018-12-01T10:18:23.667Z,1004.83
2018-12-01T10:19:23.653Z,1004.77
2018-12-01T10:20:23.635Z,1004.82
2018-12-01T10:21:23.621Z,1004.77
2018-12-01T10:22:23.605Z,1004.74
2018-12-01T10:23:23.592Z,1004.74
2018-12-01T10:24:23.574Z,1004.78
2018-12-01T10:25:23.562Z,1004.73
2018-12-01T10:26:23.544Z,1004.77
2018-12-01T10:27:23.532Z,1004.68
2018-12-01T10:28:23.514Z,1004.65
2018-12-01T10:29:23.502Z,1004.69
2018-12-01T10:30:23.492Z,1004.64
2018-12-01T10:31:23.472Z,1004.65
2018-12-01T10:32:23.462Z,1004.57
2018-12-01T10:33:23.448Z,1004.57
2018-12-01T10:34:23.432Z,1004.58
2018-12-01T10:35:23.417Z,1004.54
2018-12-01T10:36:23.401Z,1004.51
2018-12-01T10:37:23.387Z,1004.5
2018-12-01T10:38:23.388Z,1004.52
2018-12-01T10:39:23.360Z,1004.5
2018-12-01T10:40:23.352Z,1004.54
2018-12-01T10:41:23.337Z,1004.52
2018-12-01T10:42:23.318Z,1004.56
2018-12-01T10:43:23.302Z,1004.56
2018-12-01T10:44:23.288Z,1004.58
2018-12-01T10:45:23.274Z,1004.56
2018-12-01T10:46:23.289Z,1004.49
2018-12-01T10:47:23.316Z,1004.49
2018-12-01T10:48:23.239Z,1004.49
2018-12-01T10:49:23.232Z,1004.45
2018-12-01T10:50:23.209Z,1004.44
2018-12-01T10:51:23.188Z,1004.45
2018-12-01T10:52:23.172Z,1004.47
2018-12-01T10:53:23.157Z,1004.47
2018-12-01T10:54:23.145Z,1004.54
2018-12-01T10:55:23.128Z,1004.48
2018-12-01T10:56:23.114Z,1004.47
2018-12-01T10:57:24.280Z,1004.49
2018-12-01T10:58:23.084Z,1004.5
2018-12-01T10:59:23.070Z,1004.45
2018-12-01T11:00:23.056Z,1004.46
2018-12-01T11:01:23.038Z,1004.46
2018-12-01T11:02:23.023Z,1004.4
2018-12-01T11:03:23.010Z,1004.4
2018-12-01T11:04:22.993Z,1004.44
2018-12-01T11:05:22.979Z,1004.41
2018-12-01T11:06:22.963Z,1004.46
2018-12-01T11:07:22.946Z,1004.42
2018-12-01T11:08:22.929Z,1004.45
2018-12-01T11:09:22.914Z,1004.54
2018-12-01T11:10:22.899Z,1004.47
2018-12-01T11:11:22.884Z,1004.49
2018-12-01T11:12:22.868Z,1004.49
2018-12-01T11:13:22.856Z,1004.5
2018-12-01T11:14:22.838Z,1004.52
2018-12-01T11:15:22.822Z,1004.51
2018-12-01T11:16:22.807Z,1004.55
2018-12-01T11:17:22.793Z,1004.55
2018-12-01T11:18:22.775Z,1004.5
2018-12-01T11:19:22.759Z,1004.49
2018-12-01T11:20:22.744Z,1004.46
2018-12-01T11:21:22.735Z,1004.43
2018-12-01T11:22:22.730Z,1004.43
2018-12-01T11:23:22.699Z,1004.44
2018-12-01T11:24:22.683Z,1004.43
2018-12-01T11:25:22.667Z,1004.39
2018-12-01T11:26:22.652Z,1004.36
2018-12-01T11:27:22.636Z,1004.36
2018-12-01T11:28:22.621Z,1004.36
2018-12-01T11:29:22.605Z,1004.36
2018-12-01T11:30:22.589Z,1004.36
2018-12-01T11:31:22.582Z,1004.33
2018-12-01T11:32:22.876Z,1004.31
2018-12-01T11:33:22.544Z,1004.32
2018-12-01T11:34:22.527Z,1004.29
2018-12-01T11:35:22.514Z,1004.26
2018-12-01T11:36:22.496Z,1004.22
2018-12-01T11:37:22.479Z,1004.28
2018-12-01T11:38:22.464Z,1004.27
2018-12-01T11:39:22.452Z,1004.23
2018-12-01T11:40:22.435Z,1004.21
2018-12-01T11:41:22.417Z,1004.16
2018-12-01T11:42:22.401Z,1004.2
2018-12-01T11:43:22.389Z,1004.15
2018-12-01T11:44:22.371Z,1004.16
2018-12-01T11:45:22.355Z,1004.13
2018-12-01T11:46:22.342Z,1004.1
2018-12-01T11:47:22.327Z,1004.04
2018-12-01T11:48:22.308Z,1004.08
2018-12-01T11:49:22.294Z,1004.06
2018-12-01T11:50:22.277Z,1004.09
2018-12-01T11:51:22.264Z,1004.03
2018-12-01T11:52:22.248Z,1004
2018-12-01T11:53:22.232Z,1004.02
2018-12-01T11:54:22.218Z,1004.09
2018-12-01T11:55:22.203Z,1004.03
2018-12-01T11:56:22.191Z,1004.09
2018-12-01T11:57:22.183Z,1004.08
2018-12-01T11:58:22.160Z,1004.03
2018-12-01T11:59:22.148Z,1004.05
2018-12-01T12:00:22.134Z,1003.99
2018-12-01T12:01:22.123Z,1003.91
2018-12-01T12:02:22.105Z,1003.94
2018-12-01T12:03:22.090Z,1003.96
2018-12-01T12:04:22.078Z,1003.88
2018-12-01T12:05:22.062Z,1003.91
2018-12-01T12:06:22.052Z,1003.89
2018-12-01T12:07:22.039Z,1003.86
2018-12-01T12:08:22.024Z,1003.85